Time;durP1;ratioP1;P1;durP2;ratioP2;P2;SDS_P1;SDS_P2;PMS_P1;PMS_P2;Temp;Humidity;BMP_temperature;BMP_pressure;BME280_temperature;BME280_humidity;BME280_pressure;Samples;Min_cycle;Max_cycle;Signal;HPM_P1;HPM_P2
2021/09/30 00:01:19;;;;;;;;;;;10.00;99.90;;;;;;5054093;28;19912;-80
2021/09/30 00:03:44;;;;;;;;;;;10.00;99.90;;;;;;5025542;28;19913;-82
2021/09/30 00:06:10;;;;;;;;;;;10.00;99.90;;;;;;5053755;28;19916;-76
2021/09/30 00:08:35;;;;;;;;;;;10.10;99.90;;;;;;5028670;28;19986;-78
2021/09/30 00:11:13;;;;;;;;;;;10.10;99.90;;;;;;5063312;28;20278;-80
2021/09/30 00:32:47;;;;;;;;;;;10.20;99.90;;;;;;5050190;28;19923;-77
2021/09/30 00:46:20;;;;;;;;;;;10.20;99.90;;;;;;5053651;28;19924;-77
2021/09/30 00:49:02;;;;;;;;;;;10.20;99.90;;;;;;5050855;28;20299;-77
2021/09/30 02:58:28;;;;;;;;;;;9.40;99.90;;;;;;5054106;28;19936;-79
2021/09/30 03:01:12;;;;;;;;;;;9.40;99.90;;;;;;5040620;28;19917;-79
2021/09/30 03:03:38;;;;;;;;;;;9.40;99.90;;;;;;5038211;28;19982;-79
2021/09/30 03:06:04;;;;;;;;;;;9.30;99.90;;;;;;5055594;28;19916;-78
2021/09/30 03:08:34;;;;;;;;;;;9.40;99.90;;;;;;5039336;28;19916;-78
2021/09/30 03:11:01;;;;;;;;;;;9.30;99.90;;;;;;5053282;28;20307;-79
2021/09/30 03:13:28;;;;;;;;;;;9.30;99.90;;;;;;5054923;28;19916;-79
2021/09/30 03:15:58;;;;;;;;;;;9.30;99.90;;;;;;5058466;28;19917;-78
2021/09/30 03:23:38;;;;;;;;;;;9.40;99.90;;;;;;5055009;28;19971;-79
2021/09/30 03:26:03;;;;;;;;;;;9.40;99.90;;;;;;5043568;28;20288;-79
2021/09/30 03:28:30;;;;;;;;;;;9.40;99.90;;;;;;5055565;28;19996;-79
2021/09/30 03:30:57;;;;;;;;;;;9.40;99.90;;;;;;5035772;28;19917;-79
2021/09/30 03:33:23;;;;;;;;;;;9.40;99.90;;;;;;5051523;28;20280;-79
2021/09/30 03:35:49;;;;;;;;;;;9.50;99.90;;;;;;5050085;28;20342;-79
2021/09/30 03:38:15;;;;;;;;;;;9.50;99.90;;;;;;5054388;28;19940;-78
2021/09/30 03:40:42;;;;;;;;;;;9.50;99.90;;;;;;5036255;28;19916;-78
2021/09/30 03:43:08;;;;;;;;;;;9.50;99.90;;;;;;5050236;28;20371;-79
2021/09/30 03:45:34;;;;;;;;;;;9.50;99.90;;;;;;5053942;28;19982;-79
2021/09/30 03:47:59;;;;;;;;;;;9.50;99.90;;;;;;5060150;28;20228;-78
2021/09/30 03:50:28;;;;;;;;;;;9.60;99.90;;;;;;5040073;28;20024;-79
2021/09/30 03:53:01;;;;;;;;;;;9.50;99.90;;;;;;5034950;28;20251;-79
2021/09/30 04:00:37;;;;;;;;;;;9.60;99.90;;;;;;5056955;28;19923;-79
2021/09/30 04:03:02;;;;;;;;;;;9.60;99.90;;;;;;5053918;28;19913;-79
2021/09/30 04:05:28;;;;;;;;;;;9.60;99.90;;;;;;5057188;28;19956;-79
2021/09/30 04:07:53;;;;;;;;;;;9.60;99.90;;;;;;5050778;28;20011;-79
2021/09/30 04:10:19;;;;;;;;;;;9.60;99.90;;;;;;5029783;28;19921;-79
2021/09/30 04:12:44;;;;;;;;;;;9.60;99.90;;;;;;5052798;28;19925;-79
2021/09/30 04:15:10;;;;;;;;;;;9.60;99.90;;;;;;5060262;28;20280;-79
2021/09/30 04:17:36;;;;;;;;;;;9.60;99.90;;;;;;5052605;28;20340;-78
2021/09/30 04:20:03;;;;;;;;;;;9.60;99.90;;;;;;5036482;28;20239;-79
2021/09/30 04:22:29;;;;;;;;;;;9.70;99.90;;;;;;5033064;28;19917;-77
2021/09/30 04:24:54;;;;;;;;;;;9.70;99.90;;;;;;5060984;28;19928;-79
2021/09/30 04:27:20;;;;;;;;;;;9.60;99.90;;;;;;5033897;28;19917;-78
2021/09/30 04:29:45;;;;;;;;;;;9.60;99.90;;;;;;5035780;28;19964;-79
2021/09/30 04:32:11;;;;;;;;;;;9.60;99.90;;;;;;5047675;28;19917;-79
2021/09/30 04:34:37;;;;;;;;;;;9.60;99.90;;;;;;5050123;28;19924;-79
2021/09/30 04:37:03;;;;;;;;;;;9.60;99.90;;;;;;5029041;28;19973;-78
2021/09/30 04:39:28;;;;;;;;;;;9.60;99.90;;;;;;5045785;28;20256;-79
2021/09/30 04:41:54;;;;;;;;;;;9.60;99.90;;;;;;5044353;28;19917;-79
2021/09/30 04:44:22;;;;;;;;;;;9.60;99.90;;;;;;5043824;28;19952;-79
2021/09/30 04:46:48;;;;;;;;;;;9.60;99.90;;;;;;5031377;28;19917;-81
2021/09/30 04:49:13;;;;;;;;;;;9.60;99.90;;;;;;5046359;28;19927;-79
2021/09/30 04:51:39;;;;;;;;;;;9.50;99.90;;;;;;5050690;28;19921;-76
2021/09/30 04:54:04;;;;;;;;;;;9.50;99.90;;;;;;5047570;28;19994;-79
2021/09/30 04:56:30;;;;;;;;;;;9.50;99.90;;;;;;5045266;28;19916;-79
2021/09/30 04:58:55;;;;;;;;;;;9.50;99.90;;;;;;5050093;28;19917;-79
2021/09/30 05:01:21;;;;;;;;;;;9.50;99.90;;;;;;5029097;28;19952;-78
2021/09/30 05:03:47;;;;;;;;;;;9.40;99.90;;;;;;5043942;28;20003;-80
2021/09/30 05:06:13;;;;;;;;;;;9.40;99.90;;;;;;5055701;28;19916;-79
2021/09/30 05:08:41;;;;;;;;;;;9.50;99.90;;;;;;5063217;28;19916;-79
2021/09/30 05:11:07;;;;;;;;;;;9.50;99.90;;;;;;5062935;28;19925;-79
2021/09/30 05:13:39;;;;;;;;;;;9.60;99.90;;;;;;5063490;28;20023;-78
2021/09/30 05:16:06;;;;;;;;;;;9.60;99.90;;;;;;5061125;28;20554;-79
2021/09/30 05:18:32;;;;;;;;;;;9.60;99.90;;;;;;5058915;28;19948;-79
2021/09/30 05:20:58;;;;;;;;;;;9.60;99.90;;;;;;5061831;28;20282;-78
2021/09/30 05:23:23;;;;;;;;;;;9.60;99.90;;;;;;5042021;28;19952;-79
2021/09/30 05:25:49;;;;;;;;;;;9.50;99.90;;;;;;5059797;28;20361;-79
2021/09/30 05:28:15;;;;;;;;;;;9.50;99.90;;;;;;5058899;28;19916;-79
2021/09/30 05:30:40;;;;;;;;;;;9.50;99.90;;;;;;5059201;28;19916;-79
2021/09/30 05:33:06;;;;;;;;;;;9.50;99.90;;;;;;5043275;28;19924;-79
2021/09/30 05:35:31;;;;;;;;;;;9.50;99.90;;;;;;5062244;28;20011;-78
2021/09/30 05:37:57;;;;;;;;;;;9.40;99.90;;;;;;5035300;28;20292;-80
2021/09/30 05:40:24;;;;;;;;;;;9.40;99.90;;;;;;5055448;28;19924;-80
2021/09/30 05:42:49;;;;;;;;;;;9.40;99.90;;;;;;5039064;28;20011;-76
2021/09/30 05:45:16;;;;;;;;;;;9.40;99.90;;;;;;5051235;28;20348;-79
2021/09/30 05:47:43;;;;;;;;;;;9.30;99.90;;;;;;5034255;28;19921;-81
2021/09/30 05:50:09;;;;;;;;;;;9.40;99.90;;;;;;5051181;28;19920;-80
2021/09/30 05:52:35;;;;;;;;;;;9.40;99.90;;;;;;5046471;28;19921;-79
2021/09/30 05:55:01;;;;;;;;;;;9.30;99.90;;;;;;5035020;28;19924;-81
2021/09/30 05:57:26;;;;;;;;;;;9.30;99.90;;;;;;5052890;28;20228;-79
2021/09/30 05:59:52;;;;;;;;;;;9.40;99.90;;;;;;5035864;28;19913;-79
2021/09/30 06:15:12;;;;;;;;;;;9.50;99.90;;;;;;5057473;28;19999;-79
2021/09/30 06:17:39;;;;;;;;;;;9.50;99.90;;;;;;5058282;28;19917;-79
2021/09/30 06:20:05;;;;;;;;;;;9.50;99.90;;;;;;5059602;28;19990;-80
2021/09/30 06:22:31;;;;;;;;;;;9.50;99.90;;;;;;5040938;28;19917;-80
2021/09/30 06:24:56;;;;;;;;;;;9.60;99.90;;;;;;5048370;28;19947;-80
2021/09/30 06:27:22;;;;;;;;;;;9.60;99.90;;;;;;5042294;28;20008;-80
2021/09/30 06:29:47;;;;;;;;;;;9.70;99.90;;;;;;5064180;28;19996;-80
2021/09/30 06:32:13;;;;;;;;;;;9.80;99.90;;;;;;5063295;28;19927;-80
2021/09/30 06:34:41;;;;;;;;;;;9.80;99.90;;;;;;5044651;28;19917;-81
2021/09/30 06:37:06;;;;;;;;;;;9.80;99.90;;;;;;5051666;28;19959;-79
2021/09/30 06:39:37;;;;;;;;;;;9.80;99.90;;;;;;5064492;28;19987;-81
2021/09/30 06:42:02;;;;;;;;;;;9.80;99.90;;;;;;5061082;28;20007;-80
2021/09/30 06:44:28;;;;;;;;;;;9.90;99.90;;;;;;5064760;28;20548;-80
2021/09/30 06:46:53;;;;;;;;;;;10.00;99.90;;;;;;5063638;28;19912;-81
2021/09/30 06:49:19;;;;;;;;;;;10.20;99.90;;;;;;5065609;28;19920;-77
2021/09/30 06:51:45;;;;;;;;;;;10.40;99.90;;;;;;5041887;28;19936;-80
2021/09/30 06:54:10;;;;;;;;;;;10.70;99.90;;;;;;5064028;28;20348;-80
2021/09/30 06:56:36;;;;;;;;;;;11.20;99.90;;;;;;5065029;28;19932;-81
2021/09/30 06:59:05;;;;;;;;;;;11.70;99.90;;;;;;5045466;28;19921;-81
2021/09/30 07:01:32;;;;;;;;;;;12.40;99.90;;;;;;5043697;28;19956;-80
2021/09/30 07:03:57;;;;;;;;;;;13.00;99.90;;;;;;5047119;28;20262;-81
2021/09/30 07:06:24;;;;;;;;;;;13.50;99.90;;;;;;5042450;28;19913;-81
2021/09/30 07:08:49;;;;;;;;;;;13.90;99.90;;;;;;5062591;28;19916;-75
2021/09/30 07:11:15;;;;;;;;;;;14.20;99.90;;;;;;5061542;28;19970;-82
2021/09/30 07:13:41;;;;;;;;;;;14.30;99.90;;;;;;5064336;28;19916;-80
2021/09/30 07:16:06;;;;;;;;;;;14.40;99.90;;;;;;5044309;28;19951;-81
2021/09/30 07:18:32;;;;;;;;;;;14.30;99.90;;;;;;5062553;28;19935;-81
2021/09/30 07:20:59;;;;;;;;;;;14.10;99.90;;;;;;5062350;28;19975;-81
2021/09/30 07:23:25;;;;;;;;;;;13.70;99.90;;;;;;5054412;28;19920;-82
2021/09/30 07:25:51;;;;;;;;;;;13.60;99.90;;;;;;5053784;28;20527;-80
2021/09/30 07:28:16;;;;;;;;;;;13.80;99.90;;;;;;5065791;28;19924;-81
2021/09/30 07:30:42;;;;;;;;;;;14.00;99.90;;;;;;5037130;28;20304;-82
2021/09/30 07:33:09;;;;;;;;;;;14.50;99.90;;;;;;5059984;28;19917;-81
2021/09/30 07:35:35;;;;;;;;;;;14.80;99.90;;;;;;5037390;28;19913;-82
2021/09/30 07:38:01;;;;;;;;;;;15.20;99.90;;;;;;5049930;28;19916;-84
2021/09/30 07:40:27;;;;;;;;;;;15.50;99.90;;;;;;5041012;28;19921;-81
2021/09/30 07:42:53;;;;;;;;;;;16.00;99.90;;;;;;5053349;28;19913;-82
2021/09/30 07:45:19;;;;;;;;;;;16.70;99.90;;;;;;5037522;28;19917;-80
2021/09/30 07:47:45;;;;;;;;;;;17.20;99.90;;;;;;5060586;28;19913;-81
2021/09/30 07:50:11;;;;;;;;;;;17.60;99.90;;;;;;5036783;28;19912;-79
2021/09/30 07:52:36;;;;;;;;;;;17.80;99.90;;;;;;5053529;28;19916;-83
2021/09/30 07:55:03;;;;;;;;;;;17.60;99.90;;;;;;5042217;28;20338;-84
2021/09/30 07:57:28;;;;;;;;;;;17.80;99.90;;;;;;5062888;28;20208;-81
2021/09/30 07:59:54;;;;;;;;;;;18.10;99.90;;;;;;5061138;28;19919;-81
2021/09/30 08:02:20;;;;;;;;;;;18.10;99.90;;;;;;5066358;28;19917;-82
2021/09/30 08:04:45;;;;;;;;;;;17.70;99.90;;;;;;5064115;28;19986;-82
2021/09/30 08:07:11;;;;;;;;;;;17.30;99.90;;;;;;5060217;28;19916;-83
2021/09/30 08:09:37;;;;;;;;;;;16.50;99.90;;;;;;5062429;28;20573;-80
2021/09/30 08:12:03;;;;;;;;;;;15.80;99.90;;;;;;5059191;28;19943;-82
2021/09/30 08:14:28;;;;;;;;;;;15.30;99.90;;;;;;5055975;28;19917;-78
2021/09/30 08:16:54;;;;;;;;;;;15.40;99.90;;;;;;5058883;28;20262;-76
2021/09/30 08:19:19;;;;;;;;;;;15.80;99.90;;;;;;5056968;28;20544;-82
2021/09/30 08:21:45;;;;;;;;;;;16.00;99.90;;;;;;5057746;28;19916;-85
2021/09/30 08:24:15;;;;;;;;;;;15.90;99.90;;;;;;5037065;28;21595;-82
2021/09/30 08:26:41;;;;;;;;;;;15.80;99.90;;;;;;5058328;28;19928;-82
2021/09/30 08:29:07;;;;;;;;;;;15.60;99.90;;;;;;5036459;28;19935;-82
2021/09/30 08:31:33;;;;;;;;;;;15.50;99.90;;;;;;5052359;28;20383;-86
2021/09/30 08:34:00;;;;;;;;;;;15.30;99.90;;;;;;5046470;28;19921;-82
2021/09/30 08:36:26;;;;;;;;;;;15.10;99.90;;;;;;5033036;28;19961;-82
2021/09/30 08:38:52;;;;;;;;;;;14.90;99.90;;;;;;5061093;28;19920;-84
2021/09/30 08:41:20;;;;;;;;;;;14.80;99.90;;;;;;5060435;28;19920;-83
2021/09/30 08:43:46;;;;;;;;;;;14.70;99.90;;;;;;5040275;28;19962;-81
2021/09/30 08:46:12;;;;;;;;;;;14.50;99.90;;;;;;5056805;28;19928;-79
2021/09/30 08:48:38;;;;;;;;;;;14.40;99.90;;;;;;5024936;28;20051;-81
2021/09/30 08:51:05;;;;;;;;;;;14.30;99.90;;;;;;5042821;28;20489;-77
2021/09/30 08:53:30;;;;;;;;;;;14.20;99.90;;;;;;5040854;28;19924;-82
2021/09/30 08:55:56;;;;;;;;;;;14.10;99.90;;;;;;5062238;28;19912;-81
2021/09/30 08:58:22;;;;;;;;;;;14.00;99.90;;;;;;5059881;28;19917;-80
2021/09/30 09:00:52;;;;;;;;;;;14.00;99.90;;;;;;5062829;28;20386;-76
2021/09/30 09:03:29;;;;;;;;;;;13.90;99.90;;;;;;5049230;28;19916;-80
2021/09/30 09:05:55;;;;;;;;;;;13.90;99.90;;;;;;5041683;28;19928;-84
2021/09/30 09:08:21;;;;;;;;;;;13.80;99.90;;;;;;5061283;28;20200;-82
2021/09/30 09:10:46;;;;;;;;;;;13.80;99.90;;;;;;5062116;28;19928;-82
2021/09/30 09:13:13;;;;;;;;;;;13.70;99.90;;;;;;5060927;28;19924;-81
2021/09/30 09:15:46;;;;;;;;;;;13.60;99.90;;;;;;5042185;28;20315;-80
2021/09/30 09:18:14;;;;;;;;;;;13.60;99.90;;;;;;5059805;28;19912;-80
2021/09/30 09:20:40;;;;;;;;;;;13.50;99.90;;;;;;5060784;28;19923;-81
2021/09/30 09:23:08;;;;;;;;;;;13.50;99.90;;;;;;5060971;28;20323;-81
2021/09/30 09:25:34;;;;;;;;;;;13.50;99.90;;;;;;5059681;28;19925;-81
2021/09/30 09:28:00;;;;;;;;;;;13.50;99.90;;;;;;5056628;28;20407;-82
2021/09/30 09:30:37;;;;;;;;;;;13.60;99.90;;;;;;5064816;28;19995;-81
2021/09/30 09:33:08;;;;;;;;;;;13.70;99.90;;;;;;5065137;28;19920;-80
2021/09/30 09:36:13;;;;;;;;;;;13.80;99.90;;;;;;5045586;28;19917;-81
2021/09/30 09:38:42;;;;;;;;;;;13.90;99.90;;;;;;5053134;28;19913;-81
2021/09/30 09:41:08;;;;;;;;;;;14.10;99.90;;;;;;5065888;28;19965;-82
2021/09/30 09:43:36;;;;;;;;;;;14.30;99.90;;;;;;5068250;28;20282;-80
2021/09/30 09:46:02;;;;;;;;;;;14.50;99.90;;;;;;5041225;28;19975;-81
2021/09/30 09:48:28;;;;;;;;;;;14.60;99.90;;;;;;5065171;28;19947;-76
2021/09/30 09:50:54;;;;;;;;;;;14.60;99.90;;;;;;5050593;28;20356;-82
2021/09/30 09:53:25;;;;;;;;;;;14.70;99.90;;;;;;5067012;28;20300;-76
2021/09/30 09:55:50;;;;;;;;;;;14.60;99.90;;;;;;5067056;28;19923;-79
2021/09/30 09:58:17;;;;;;;;;;;14.70;99.90;;;;;;5064870;28;19913;-80
2021/09/30 10:00:42;;;;;;;;;;;14.70;99.90;;;;;;5042092;28;19928;-82
2021/09/30 10:03:12;;;;;;;;;;;14.70;99.90;;;;;;5061620;28;19995;-80
2021/09/30 10:05:38;;;;;;;;;;;14.70;99.90;;;;;;5063901;28;19920;-79
2021/09/30 10:08:28;;;;;;;;;;;14.70;99.90;;;;;;5063728;28;20322;-79
2021/09/30 10:11:15;;;;;;;;;;;14.70;99.90;;;;;;5050003;28;20418;-82
2021/09/30 10:13:41;;;;;;;;;;;14.70;99.90;;;;;;5057030;28;20023;-81
2021/09/30 10:16:06;;;;;;;;;;;14.60;99.90;;;;;;5062101;28;19999;-82
2021/09/30 10:18:32;;;;;;;;;;;14.60;99.90;;;;;;5060094;28;19920;-82
2021/09/30 10:20:58;;;;;;;;;;;14.60;99.90;;;;;;5045622;28;19913;-82
2021/09/30 10:23:26;;;;;;;;;;;14.70;99.90;;;;;;5034977;28;20393;-82
2021/09/30 10:25:52;;;;;;;;;;;14.60;99.90;;;;;;5041108;28;19917;-80
2021/09/30 10:28:18;;;;;;;;;;;14.60;99.90;;;;;;5034854;28;19920;-84
2021/09/30 10:30:44;;;;;;;;;;;14.70;99.90;;;;;;5032817;28;19922;-82
2021/09/30 10:33:11;;;;;;;;;;;14.70;99.90;;;;;;5032106;28;20216;-80
2021/09/30 10:35:41;;;;;;;;;;;14.70;99.90;;;;;;5028782;28;19917;-82
2021/09/30 10:38:17;;;;;;;;;;;14.60;99.90;;;;;;5035324;28;20275;-80
2021/09/30 10:41:00;;;;;;;;;;;14.50;99.90;;;;;;5040352;28;19963;-86
2021/09/30 10:43:30;;;;;;;;;;;14.40;99.90;;;;;;5037041;28;19917;-82
2021/09/30 10:45:56;;;;;;;;;;;14.30;99.90;;;;;;5033104;28;19920;-81
2021/09/30 10:48:31;;;;;;;;;;;14.30;99.90;;;;;;5036347;28;20540;-82
2021/09/30 10:51:07;;;;;;;;;;;14.20;99.90;;;;;;5035826;28;20051;-82
2021/09/30 10:53:45;;;;;;;;;;;14.20;99.90;;;;;;5055606;28;19923;-81
2021/09/30 10:56:39;;;;;;;;;;;14.20;99.90;;;;;;5034598;28;20370;-79
2021/09/30 10:59:08;;;;;;;;;;;14.20;99.90;;;;;;5047813;28;19962;-82
2021/09/30 11:01:34;;;;;;;;;;;14.20;99.90;;;;;;5048186;28;20003;-81
2021/09/30 11:04:00;;;;;;;;;;;14.10;99.90;;;;;;5035733;28;20275;-76
2021/09/30 11:06:26;;;;;;;;;;;14.10;99.90;;;;;;5038920;28;19932;-82
2021/09/30 11:09:11;;;;;;;;;;;14.10;99.90;;;;;;5040110;28;19913;-82
2021/09/30 11:11:37;;;;;;;;;;;14.10;99.90;;;;;;5040895;28;19928;-82
2021/09/30 11:14:03;;;;;;;;;;;14.10;99.90;;;;;;5044266;28;19963;-84
2021/09/30 11:16:36;;;;;;;;;;;14.10;99.90;;;;;;5043489;28;19916;-80
2021/09/30 11:19:02;;;;;;;;;;;14.10;99.90;;;;;;5043253;28;19917;-81
2021/09/30 11:21:27;;;;;;;;;;;14.10;99.90;;;;;;5042562;28;19940;-82
2021/09/30 11:23:53;;;;;;;;;;;14.10;99.90;;;;;;5040714;28;20300;-80
2021/09/30 11:26:19;;;;;;;;;;;14.00;99.90;;;;;;5045077;28;20311;-81
2021/09/30 11:28:44;;;;;;;;;;;14.10;99.90;;;;;;5037430;28;19923;-83
2021/09/30 11:31:21;;;;;;;;;;;14.10;99.90;;;;;;5066610;28;20148;-79
2021/09/30 11:34:00;;;;;;;;;;;14.10;99.90;;;;;;5019838;28;19988;-77
2021/09/30 11:36:42;;;;;;;;;;;14.10;99.90;;;;;;5039333;28;20015;-77
2021/09/30 11:39:08;;;;;;;;;;;14.10;99.90;;;;;;5035316;28;19943;-79
2021/09/30 11:41:39;;;;;;;;;;;14.10;99.90;;;;;;5041759;28;20296;-82
2021/09/30 11:44:04;;;;;;;;;;;14.20;99.90;;;;;;5043636;28;19913;-82
2021/09/30 11:46:32;;;;;;;;;;;14.10;99.90;;;;;;5044090;28;19978;-78
2021/09/30 11:48:58;;;;;;;;;;;14.10;99.90;;;;;;5044427;28;19921;-82
2021/09/30 11:51:34;;;;;;;;;;;14.10;99.90;;;;;;5042387;28;19975;-80
2021/09/30 11:54:00;;;;;;;;;;;14.10;99.90;;;;;;5041973;28;19920;-76
2021/09/30 11:56:26;;;;;;;;;;;14.10;99.90;;;;;;5044891;28;21507;-76
2021/09/30 11:59:02;;;;;;;;;;;14.00;99.90;;;;;;5040331;28;20224;-81
2021/09/30 12:01:38;;;;;;;;;;;13.90;99.90;;;;;;5030559;28;19916;-80
2021/09/30 12:04:04;;;;;;;;;;;13.90;99.90;;;;;;5043856;28;19924;-81
2021/09/30 12:06:37;;;;;;;;;;;13.90;99.90;;;;;;5029720;28;19963;-76
2021/09/30 12:09:02;;;;;;;;;;;13.90;99.90;;;;;;5036528;28;19920;-79
2021/09/30 12:11:31;;;;;;;;;;;13.80;99.90;;;;;;5035945;28;20345;-81
2021/09/30 12:13:58;;;;;;;;;;;13.90;99.90;;;;;;5020680;28;19928;-78
2021/09/30 12:16:23;;;;;;;;;;;13.90;99.90;;;;;;5025127;28;19921;-76
2021/09/30 12:19:03;;;;;;;;;;;13.90;99.90;;;;;;5030502;28;19921;-77
2021/09/30 12:21:39;;;;;;;;;;;13.90;99.90;;;;;;5028327;28;19921;-79
2021/09/30 12:24:08;;;;;;;;;;;13.90;99.90;;;;;;5039376;28;19924;-78
2021/09/30 12:26:37;;;;;;;;;;;13.90;99.90;;;;;;5055326;28;19917;-80
2021/09/30 12:29:05;;;;;;;;;;;13.90;99.90;;;;;;5051888;28;19922;-80
2021/09/30 12:31:31;;;;;;;;;;;13.90;99.90;;;;;;5045639;28;19924;-80
2021/09/30 12:33:56;;;;;;;;;;;14.00;99.90;;;;;;5044223;28;19921;-79
2021/09/30 12:36:22;;;;;;;;;;;13.90;99.90;;;;;;5047805;28;19916;-80
2021/09/30 12:38:56;;;;;;;;;;;13.90;99.90;;;;;;5052229;28;19916;-81
2021/09/30 12:41:22;;;;;;;;;;;13.90;99.90;;;;;;5055920;28;20334;-80
2021/09/30 12:43:47;;;;;;;;;;;13.90;99.90;;;;;;5057518;28;19948;-81
2021/09/30 12:46:17;;;;;;;;;;;13.80;99.90;;;;;;5055822;28;21449;-80
2021/09/30 12:48:43;;;;;;;;;;;13.80;99.90;;;;;;5037061;28;19931;-87
2021/09/30 12:51:09;;;;;;;;;;;13.60;99.90;;;;;;5035854;28;19912;-83
2021/09/30 12:53:51;;;;;;;;;;;13.50;99.90;;;;;;5055677;28;19925;-82
2021/09/30 12:56:18;;;;;;;;;;;13.50;99.90;;;;;;5034118;28;20344;-81
2021/09/30 12:58:45;;;;;;;;;;;13.50;99.90;;;;;;5054999;28;19913;-83
2021/09/30 13:01:23;;;;;;;;;;;13.60;99.90;;;;;;5052392;28;19913;-81
2021/09/30 13:04:21;;;;;;;;;;;13.60;99.90;;;;;;5057274;28;19925;-87
2021/09/30 13:06:47;;;;;;;;;;;13.60;99.90;;;;;;5009880;28;19918;-82
2021/09/30 13:09:20;;;;;;;;;;;13.70;99.90;;;;;;5008823;28;19914;-82
2021/09/30 13:11:55;;;;;;;;;;;13.70;99.90;;;;;;5008571;28;19917;-82
2021/09/30 13:14:20;;;;;;;;;;;13.70;99.90;;;;;;4992714;28;19928;-83
2021/09/30 13:16:47;;;;;;;;;;;13.60;99.90;;;;;;4993662;28;20604;-83
2021/09/30 13:19:13;;;;;;;;;;;13.60;99.90;;;;;;4991306;28;19921;-81
2021/09/30 13:21:57;;;;;;;;;;;13.50;99.90;;;;;;4992907;28;19924;-81
2021/09/30 13:24:23;;;;;;;;;;;13.50;99.90;;;;;;5007250;28;19929;-81
2021/09/30 13:26:49;;;;;;;;;;;13.40;99.90;;;;;;5009449;28;20200;-81
2021/09/30 13:29:14;;;;;;;;;;;13.40;99.90;;;;;;5010905;28;20133;-80
2021/09/30 13:31:40;;;;;;;;;;;13.40;99.90;;;;;;5007163;28;20314;-80
2021/09/30 13:34:05;;;;;;;;;;;13.40;99.90;;;;;;5008054;28;19929;-79
2021/09/30 13:36:31;;;;;;;;;;;13.40;99.90;;;;;;5005895;28;19913;-79
2021/09/30 13:38:57;;;;;;;;;;;13.40;99.90;;;;;;5005299;28;19959;-80
2021/09/30 13:41:22;;;;;;;;;;;13.40;99.90;;;;;;5005676;28;19925;-80
2021/09/30 13:43:48;;;;;;;;;;;13.40;99.90;;;;;;5053021;28;20043;-80
2021/09/30 13:46:14;;;;;;;;;;;13.50;99.90;;;;;;5053937;28;20227;-79
2021/09/30 13:48:40;;;;;;;;;;;13.50;99.90;;;;;;5054832;28;19921;-74
2021/09/30 13:51:05;;;;;;;;;;;13.50;99.90;;;;;;5052268;28;19916;-80
2021/09/30 13:53:31;;;;;;;;;;;13.50;99.90;;;;;;5033691;28;19921;-80
2021/09/30 13:55:56;;;;;;;;;;;13.60;99.90;;;;;;5054335;28;19921;-76
2021/09/30 13:58:22;;;;;;;;;;;13.60;99.90;;;;;;5055950;28;20366;-79
2021/09/30 14:00:47;;;;;;;;;;;13.60;99.90;;;;;;5057061;28;19939;-79
2021/09/30 14:03:13;;;;;;;;;;;13.60;99.90;;;;;;5035177;28;19927;-80
2021/09/30 14:05:39;;;;;;;;;;;13.60;99.90;;;;;;5054090;28;19924;-79
2021/09/30 14:08:04;;;;;;;;;;;13.60;99.90;;;;;;5056182;28;19924;-78
2021/09/30 14:10:30;;;;;;;;;;;13.70;99.90;;;;;;5052994;28;20201;-76
2021/09/30 14:12:56;;;;;;;;;;;13.70;99.90;;;;;;5059452;28;19924;-79
2021/09/30 14:15:21;;;;;;;;;;;13.70;99.90;;;;;;5056944;28;19916;-79
2021/09/30 14:17:47;;;;;;;;;;;13.80;99.90;;;;;;5056813;28;19921;-80
2021/09/30 14:20:13;;;;;;;;;;;13.70;99.90;;;;;;5056423;28;19951;-78
2021/09/30 14:22:39;;;;;;;;;;;13.70;99.90;;;;;;5056380;28;19964;-80
2021/09/30 14:25:05;;;;;;;;;;;13.60;99.90;;;;;;5059236;28;20267;-79
2021/09/30 14:27:31;;;;;;;;;;;13.60;99.90;;;;;;5040251;28;19963;-78
2021/09/30 14:29:57;;;;;;;;;;;13.50;99.90;;;;;;5040949;28;20334;-79
2021/09/30 14:32:22;;;;;;;;;;;13.60;99.90;;;;;;5063877;28;20223;-80
2021/09/30 14:34:48;;;;;;;;;;;13.60;99.90;;;;;;5064228;28;19919;-80
2021/09/30 14:37:14;;;;;;;;;;;13.60;99.90;;;;;;5062390;28;19916;-80
2021/09/30 14:39:40;;;;;;;;;;;13.60;99.90;;;;;;5061957;28;20345;-77
2021/09/30 14:42:07;;;;;;;;;;;13.60;99.90;;;;;;5062416;28;19916;-79
2021/09/30 14:44:33;;;;;;;;;;;13.60;99.90;;;;;;5042822;28;19917;-79
2021/09/30 14:47:00;;;;;;;;;;;13.70;99.90;;;;;;5062870;28;19921;-79
2021/09/30 14:49:26;;;;;;;;;;;13.60;99.90;;;;;;5044876;28;19969;-80
2021/09/30 14:51:52;;;;;;;;;;;13.60;99.90;;;;;;5065763;28;19916;-78
2021/09/30 14:54:19;;;;;;;;;;;13.60;99.90;;;;;;5046132;28;19913;-77
2021/09/30 14:56:49;;;;;;;;;;;13.60;99.90;;;;;;5044461;28;20058;-78
2021/09/30 14:59:14;;;;;;;;;;;13.60;99.90;;;;;;5030301;28;19920;-78
2021/09/30 15:01:40;;;;;;;;;;;13.60;99.90;;;;;;5060546;28;19916;-77
2021/09/30 15:04:08;;;;;;;;;;;13.60;99.90;;;;;;5054542;28;19923;-79
2021/09/30 15:06:34;;;;;;;;;;;13.60;99.90;;;;;;5041982;28;20228;-74
2021/09/30 15:09:01;;;;;;;;;;;13.60;99.90;;;;;;5055672;28;19917;-75
2021/09/30 15:11:27;;;;;;;;;;;13.60;99.90;;;;;;5036792;28;19938;-81
2021/09/30 15:13:53;;;;;;;;;;;13.60;99.90;;;;;;5054900;28;20311;-81
2021/09/30 15:16:20;;;;;;;;;;;13.60;99.90;;;;;;5063180;28;19916;-80
2021/09/30 15:21:24;;;;;;;;;;;13.50;99.90;;;;;;5062456;28;19916;-79
2021/09/30 15:23:51;;;;;;;;;;;13.50;99.90;;;;;;5064423;28;19921;-79
2021/09/30 15:26:17;;;;;;;;;;;13.50;99.90;;;;;;5064619;28;19917;-81
2021/09/30 15:28:43;;;;;;;;;;;13.50;99.90;;;;;;5063260;28;19920;-82
2021/09/30 15:31:08;;;;;;;;;;;13.50;99.90;;;;;;5030854;28;19916;-80
2021/09/30 15:33:35;;;;;;;;;;;13.50;99.90;;;;;;5061822;28;19921;-80
2021/09/30 15:36:00;;;;;;;;;;;13.50;99.90;;;;;;5060382;28;19943;-80
2021/09/30 15:38:26;;;;;;;;;;;13.50;99.90;;;;;;5062854;28;20303;-82
2021/09/30 15:40:59;;;;;;;;;;;13.50;99.90;;;;;;5063025;28;19923;-82
2021/09/30 15:43:32;;;;;;;;;;;13.50;99.90;;;;;;5044535;28;19995;-83
2021/09/30 15:46:00;;;;;;;;;;;13.40;99.90;;;;;;5037807;28;19958;-80
2021/09/30 15:48:25;;;;;;;;;;;13.40;99.90;;;;;;5062742;28;19917;-79
2021/09/30 15:50:52;;;;;;;;;;;13.40;99.90;;;;;;5058945;28;19923;-79
2021/09/30 15:53:18;;;;;;;;;;;13.40;99.90;;;;;;5047646;28;19921;-80
2021/09/30 15:55:43;;;;;;;;;;;13.40;99.90;;;;;;5056763;28;19999;-79
2021/09/30 15:58:09;;;;;;;;;;;13.40;99.90;;;;;;5050111;28;19917;-80
2021/09/30 16:00:34;;;;;;;;;;;13.40;99.90;;;;;;5054230;28;19943;-80
2021/09/30 16:03:00;;;;;;;;;;;13.40;99.90;;;;;;5053859;28;19917;-75
2021/09/30 16:05:25;;;;;;;;;;;13.40;99.90;;;;;;5054675;28;19917;-80
2021/09/30 16:07:51;;;;;;;;;;;13.40;99.90;;;;;;5053851;28;20007;-80
2021/09/30 16:10:17;;;;;;;;;;;13.40;99.90;;;;;;5041821;28;20209;-81
2021/09/30 16:12:42;;;;;;;;;;;13.40;99.90;;;;;;5051593;28;19963;-81
2021/09/30 16:15:08;;;;;;;;;;;13.40;99.90;;;;;;5054440;28;19932;-80
2021/09/30 16:17:34;;;;;;;;;;;13.40;99.90;;;;;;5037038;28;19971;-80
2021/09/30 16:20:00;;;;;;;;;;;13.40;99.90;;;;;;5050921;28;19956;-77
2021/09/30 16:22:27;;;;;;;;;;;13.40;99.90;;;;;;5041122;28;19931;-80
2021/09/30 16:24:52;;;;;;;;;;;13.40;99.90;;;;;;5057129;28;20386;-82
2021/09/30 16:27:18;;;;;;;;;;;13.40;99.90;;;;;;5060183;28;20007;-80
2021/09/30 16:29:44;;;;;;;;;;;13.40;99.90;;;;;;5061850;28;19917;-80
2021/09/30 16:32:14;;;;;;;;;;;13.40;99.90;;;;;;5059698;28;19928;-76
2021/09/30 16:34:40;;;;;;;;;;;13.50;99.90;;;;;;5033014;28;19917;-78
2021/09/30 16:37:06;;;;;;;;;;;13.40;99.90;;;;;;5061919;28;19986;-82
2021/09/30 16:39:32;;;;;;;;;;;13.40;99.90;;;;;;5060492;28;19921;-79
2021/09/30 16:41:58;;;;;;;;;;;13.40;99.90;;;;;;5035102;28;19912;-79
2021/09/30 16:44:23;;;;;;;;;;;13.40;99.90;;;;;;5063379;28;20268;-79
2021/09/30 16:46:50;;;;;;;;;;;13.30;99.90;;;;;;5061963;28;20216;-79
2021/09/30 16:49:16;;;;;;;;;;;13.40;99.90;;;;;;5062209;28;19916;-79
2021/09/30 16:51:42;;;;;;;;;;;13.40;99.90;;;;;;5060781;28;19920;-81
2021/09/30 16:54:07;;;;;;;;;;;13.40;99.90;;;;;;5052146;28;19920;-79
2021/09/30 16:56:33;;;;;;;;;;;13.40;99.90;;;;;;5053705;28;20283;-80
2021/09/30 16:58:58;;;;;;;;;;;13.40;99.90;;;;;;5058771;28;19916;-79
2021/09/30 17:01:24;;;;;;;;;;;13.40;99.90;;;;;;5059663;28;19912;-79
2021/09/30 17:03:50;;;;;;;;;;;13.40;99.90;;;;;;5053100;28;19962;-79
2021/09/30 17:06:15;;;;;;;;;;;13.40;99.90;;;;;;5042071;28;19939;-79
2021/09/30 17:08:41;;;;;;;;;;;13.40;99.90;;;;;;5041674;28;19969;-78
2021/09/30 17:11:08;;;;;;;;;;;13.40;99.90;;;;;;5044099;28;20350;-78
2021/09/30 17:13:35;;;;;;;;;;;13.40;99.90;;;;;;5046550;28;19917;-79
2021/09/30 17:16:00;;;;;;;;;;;13.40;99.90;;;;;;5026908;28;19917;-77
2021/09/30 17:18:28;;;;;;;;;;;13.30;99.90;;;;;;5046932;28;20224;-78
2021/09/30 17:20:54;;;;;;;;;;;13.30;99.90;;;;;;5049542;28;19921;-79
2021/09/30 17:23:20;;;;;;;;;;;13.30;99.90;;;;;;5054601;28;19925;-76
2021/09/30 17:25:48;;;;;;;;;;;13.30;99.90;;;;;;5052495;28;19924;-79